Time;durP1;ratioP1;P1;durP2;ratioP2;P2;SDS_P1;SDS_P2;PMS_P1;PMS_P2;Temp;Humidity;BMP_temperature;BMP_pressure;BME280_temperature;BME280_humidity;BME280_pressure;Samples;Min_cycle;Max_cycle;Signal;HPM_P1;HPM_P2
2021/09/01 00:01:56;;;;;;;7.90;4.93;;;14.00;99.90;;;;;;5054132;28;20043;-88
2021/09/01 00:04:23;;;;;;;8.18;4.65;;;13.90;99.90;;;;;;5046451;28;20052;-88
2021/09/01 00:06:50;;;;;;;7.20;4.53;;;13.90;99.90;;;;;;5053243;28;20037;-87
2021/09/01 00:09:17;;;;;;;7.68;4.85;;;13.90;99.90;;;;;;5046260;28;20041;-88
2021/09/01 00:11:46;;;;;;;7.93;4.80;;;13.90;99.90;;;;;;5046632;28;20045;-87
2021/09/01 00:14:14;;;;;;;7.45;4.50;;;13.90;99.90;;;;;;5038748;28;20484;-88
2021/09/01 00:16:42;;;;;;;7.00;4.50;;;13.90;99.90;;;;;;5034760;28;20534;-87
2021/09/01 00:19:10;;;;;;;7.35;4.35;;;13.90;99.90;;;;;;5034545;28;20041;-87
2021/09/01 00:21:39;;;;;;;7.53;4.57;;;13.90;99.90;;;;;;5035423;28;20049;-91
2021/09/01 00:24:06;;;;;;;9.70;5.10;;;13.90;99.90;;;;;;5034658;28;20045;-88
2021/09/01 00:26:34;;;;;;;7.32;4.63;;;13.90;99.90;;;;;;5052856;28;20128;-89
2021/09/01 00:29:03;;;;;;;7.03;4.50;;;13.80;99.90;;;;;;5054079;28;20045;-89
2021/09/01 00:31:30;;;;;;;6.55;4.50;;;13.80;99.90;;;;;;5053442;28;20063;-89
2021/09/01 00:33:57;;;;;;;6.60;4.32;;;13.80;99.90;;;;;;5048836;28;20046;-89
2021/09/01 00:36:24;;;;;;;7.05;4.57;;;13.80;99.90;;;;;;5050267;28;20051;-89
2021/09/01 00:38:52;;;;;;;8.32;4.93;;;13.80;99.90;;;;;;5034040;28;20063;-89
2021/09/01 00:41:21;;;;;;;8.75;4.90;;;13.80;99.90;;;;;;5034521;28;20075;-89
2021/09/01 00:43:50;;;;;;;9.98;4.60;;;13.70;99.90;;;;;;5034397;28;20041;-88
2021/09/01 00:46:19;;;;;;;8.25;4.35;;;13.60;99.90;;;;;;5035402;28;20046;-88
2021/09/01 00:48:47;;;;;;;6.90;4.88;;;13.50;99.90;;;;;;5054092;28;20037;-88
2021/09/01 00:51:16;;;;;;;7.63;4.57;;;13.50;99.90;;;;;;5054381;28;20056;-88
2021/09/01 00:53:48;;;;;;;7.47;4.50;;;13.50;99.90;;;;;;5053401;28;20496;-89
2021/09/01 00:56:17;;;;;;;7.03;4.65;;;13.50;99.90;;;;;;5053627;28;20041;-89
2021/09/01 00:58:46;;;;;;;6.57;4.25;;;13.50;99.90;;;;;;5048179;28;20509;-89
2021/09/01 01:01:16;;;;;;;7.07;4.50;;;13.50;99.90;;;;;;5046269;28;20041;-88
2021/09/01 01:03:48;;;;;;;7.05;4.65;;;13.50;99.90;;;;;;5045289;28;20079;-87
2021/09/01 01:06:18;;;;;;;8.10;4.93;;;13.50;99.90;;;;;;5052970;28;20048;-87
2021/09/01 01:08:46;;;;;;;8.77;4.65;;;13.50;99.90;;;;;;5037168;28;20041;-89
2021/09/01 01:11:14;;;;;;;8.13;5.00;;;13.50;99.90;;;;;;5046345;28;20056;-89
2021/09/01 01:13:43;;;;;;;7.20;4.53;;;13.50;99.90;;;;;;5034132;28;20144;-89
2021/09/01 01:16:11;;;;;;;8.38;4.60;;;13.50;99.90;;;;;;5034720;28;20145;-89
2021/09/01 01:18:40;;;;;;;7.72;4.28;;;13.50;99.90;;;;;;5033900;28;20502;-88
2021/09/01 01:21:09;;;;;;;6.47;4.25;;;13.40;99.90;;;;;;5039757;28;20048;-87
2021/09/01 01:23:36;;;;;;;6.85;4.50;;;13.40;99.90;;;;;;5052230;28;20045;-85
2021/09/01 01:26:04;;;;;;;7.78;4.47;;;13.40;99.90;;;;;;5033809;28;20069;-86
2021/09/01 01:28:31;;;;;;;6.78;4.72;;;13.40;99.90;;;;;;5043135;28;20051;-87
2021/09/01 01:30:58;;;;;;;7.13;4.15;;;13.40;99.90;;;;;;5052928;28;20055;-87
2021/09/01 01:33:25;;;;;;;8.98;4.70;;;13.40;99.90;;;;;;5036495;28;20049;-87
2021/09/01 01:35:52;;;;;;;6.57;3.92;;;13.30;99.90;;;;;;5046866;28;20050;-85
2021/09/01 01:38:21;;;;;;;7.78;4.30;;;13.30;99.90;;;;;;5040566;28;20055;-84
2021/09/01 01:40:48;;;;;;;7.20;4.40;;;13.30;99.90;;;;;;5041196;28;20399;-85
2021/09/01 01:43:17;;;;;;;6.97;4.95;;;13.20;99.90;;;;;;5033679;28;20045;-88
2021/09/01 01:45:46;;;;;;;7.22;4.70;;;13.20;99.90;;;;;;5049526;28;20037;-88
2021/09/01 01:48:16;;;;;;;10.48;4.60;;;13.10;99.90;;;;;;5033513;28;20510;-90
2021/09/01 01:50:46;;;;;;;8.50;4.97;;;13.10;99.90;;;;;;5032836;28;20087;-82
2021/09/01 01:53:16;;;;;;;7.50;4.65;;;13.00;99.90;;;;;;5032919;28;20052;-88
2021/09/01 01:55:42;;;;;;;8.00;4.97;;;13.00;99.90;;;;;;5033801;28;20049;-89
2021/09/01 01:58:12;;;;;;;9.23;5.00;;;13.00;99.90;;;;;;5036064;28;20389;-89
2021/09/01 02:00:40;;;;;;;7.40;4.82;;;13.00;99.90;;;;;;5034027;28;20077;-88
2021/09/01 02:03:07;;;;;;;7.82;4.93;;;13.00;99.90;;;;;;5034076;28;20048;-89
2021/09/01 02:05:34;;;;;;;7.47;4.47;;;12.90;99.90;;;;;;5034783;28;20052;-90
2021/09/01 02:08:01;;;;;;;8.48;4.45;;;12.90;99.90;;;;;;5047514;28;20046;-90
2021/09/01 02:10:29;;;;;;;6.55;4.28;;;12.90;99.90;;;;;;5043700;28;20055;-90
2021/09/01 02:12:56;;;;;;;6.85;4.28;;;12.90;99.90;;;;;;5057352;28;20507;-90
2021/09/01 02:15:23;;;;;;;8.38;4.40;;;12.90;99.90;;;;;;5056366;28;20049;-91
2021/09/01 02:17:51;;;;;;;9.32;5.03;;;12.90;99.90;;;;;;5052278;28;20047;-87
2021/09/01 02:20:19;;;;;;;7.38;4.90;;;12.90;99.90;;;;;;5039242;28;20053;-87
2021/09/01 02:22:47;;;;;;;7.40;4.43;;;12.80;99.90;;;;;;5036706;28;20046;-88
2021/09/01 02:25:15;;;;;;;7.55;4.78;;;12.80;99.90;;;;;;5036564;28;20046;-89
2021/09/01 02:27:43;;;;;;;8.35;4.70;;;;;;;;;;5048457;28;20128;-87
2021/09/01 02:30:14;;;;;;;7.38;4.93;;;;;;;;;;5056172;28;20487;-88
2021/09/01 02:32:41;;;;;;;8.35;5.00;;;;;;;;;;5056371;28;20045;-92
2021/09/01 02:35:10;;;;;;;8.60;5.00;;;;;;;;;;5057808;28;20413;-91
2021/09/01 02:37:38;;;;;;;7.70;5.10;;;;;;;;;;5057182;28;20115;-92
2021/09/01 02:40:08;;;;;;;7.35;4.72;;;;;;;;;;5049770;28;20129;-91
2021/09/01 02:43:05;;;;;;;8.25;5.28;;;;;;;;;;5048053;28;20055;-89
2021/09/01 02:45:54;;;;;;;9.38;6.10;;;;;;;;;;5053618;28;20046;-89
2021/09/01 02:48:48;;;;;;;9.68;5.32;;;;;;;;;;5036791;28;20064;-89
2021/09/01 02:51:39;;;;;;;9.30;5.32;;;;;;;;;;5053800;28;20132;-91
2021/09/01 02:54:24;;;;;;;8.60;5.28;;;;;;;;;;5057311;28;20045;-92
2021/09/01 02:57:09;;;;;;;7.53;4.75;;;;;;;;;;5057041;28;20147;-91
2021/09/01 02:59:42;;;;;;;7.65;4.72;;;12.40;99.90;;;;;;5036828;28;20570;-91
2021/09/01 03:02:16;;;;;;;8.27;4.88;;;12.50;99.90;;;;;;5036317;28;20517;-89
2021/09/01 03:04:43;;;;;;;9.63;4.70;;;12.40;99.90;;;;;;5047538;28;20051;-91
2021/09/01 03:07:11;;;;;;;7.82;5.07;;;12.40;99.90;;;;;;5038085;28;20052;-91
2021/09/01 03:09:38;;;;;;;8.57;4.63;;;12.40;99.90;;;;;;5034046;28;20045;-92
2021/09/01 03:12:06;;;;;;;7.78;5.30;;;12.40;99.90;;;;;;5034603;28;20479;-92
2021/09/01 03:14:33;;;;;;;7.70;5.05;;;12.40;99.90;;;;;;5049298;28;20579;-90
2021/09/01 03:17:00;;;;;;;8.52;5.05;;;12.40;99.90;;;;;;5033781;28;20049;-89
2021/09/01 03:19:27;;;;;;;7.95;5.00;;;12.40;99.90;;;;;;5043477;28;20045;-91
2021/09/01 03:21:54;;;;;;;7.85;4.97;;;12.40;99.90;;;;;;5047564;28;20403;-88
2021/09/01 03:24:22;;;;;;;7.53;4.80;;;12.40;99.90;;;;;;5033590;28;20053;-91
2021/09/01 03:26:49;;;;;;;8.13;5.50;;;12.40;99.90;;;;;;5034013;28;20048;-92
2021/09/01 03:29:16;;;;;;;6.95;4.70;;;12.40;99.90;;;;;;5033658;28;20502;-94
2021/09/01 03:31:43;;;;;;;7.85;4.82;;;12.40;99.90;;;;;;5048852;28;20042;-89
2021/09/01 03:34:11;;;;;;;7.50;4.63;;;12.40;99.90;;;;;;5041428;28;20136;-92
2021/09/01 03:36:38;;;;;;;7.18;4.60;;;12.40;99.90;;;;;;5053224;28;20575;-91
2021/09/01 03:39:05;;;;;;;7.00;4.60;;;12.30;99.90;;;;;;5051673;28;20059;-91
2021/09/01 03:41:33;;;;;;;6.63;4.35;;;12.40;99.90;;;;;;5050301;28;20491;-84
2021/09/01 03:44:00;;;;;;;7.47;4.07;;;12.30;99.90;;;;;;5037365;28;20110;-84
2021/09/01 03:46:28;;;;;;;5.82;4.07;;;12.30;99.90;;;;;;5041631;28;20049;-84
2021/09/01 03:48:55;;;;;;;6.88;4.50;;;12.10;99.90;;;;;;5042439;28;20040;-84
2021/09/01 03:51:23;;;;;;;6.32;4.30;;;12.20;99.90;;;;;;5034266;28;20158;-83
2021/09/01 03:53:50;;;;;;;7.32;4.15;;;12.10;99.90;;;;;;5039806;28;20517;-84
2021/09/01 03:56:17;;;;;;;7.40;4.70;;;12.10;99.90;;;;;;5039641;28;20041;-82
2021/09/01 03:58:45;;;;;;;7.75;4.90;;;12.20;99.90;;;;;;5041790;28;20042;-83
2021/09/01 04:01:12;;;;;;;7.05;4.45;;;12.10;99.90;;;;;;5043103;28;20045;-84
2021/09/01 04:03:39;;;;;;;7.85;5.22;;;12.10;99.90;;;;;;5042044;28;20048;-84
2021/09/01 04:06:06;;;;;;;7.50;4.55;;;12.10;99.90;;;;;;5041114;28;20045;-83
2021/09/01 04:08:33;;;;;;;6.75;4.55;;;12.10;99.90;;;;;;5043048;28;20049;-83
2021/09/01 04:11:01;;;;;;;6.60;4.50;;;12.10;99.90;;;;;;5041564;28;20045;-83
2021/09/01 04:13:28;;;;;;;6.55;4.07;;;12.10;99.90;;;;;;5053853;28;20060;-85
2021/09/01 04:15:56;;;;;;;7.00;4.60;;;12.00;99.90;;;;;;5044975;28;20067;-85
2021/09/01 04:18:23;;;;;;;9.98;4.70;;;12.00;99.90;;;;;;5053738;28;20048;-86
2021/09/01 04:20:50;;;;;;;6.70;4.70;;;11.90;99.90;;;;;;5040443;28;20045;-86
2021/09/01 04:23:17;;;;;;;6.47;4.10;;;11.90;99.90;;;;;;5051610;28;20076;-86
2021/09/01 04:25:44;;;;;;;6.30;4.00;;;11.80;99.90;;;;;;5049466;28;20049;-92
2021/09/01 04:28:11;;;;;;;6.97;4.15;;;11.70;99.90;;;;;;5060369;28;20127;-92
2021/09/01 04:30:38;;;;;;;6.30;3.97;;;11.60;99.90;;;;;;5062260;28;20104;-91
2021/09/01 04:33:06;;;;;;;6.43;4.05;;;11.60;99.90;;;;;;5063308;28;20104;-92
2021/09/01 04:35:33;;;;;;;6.60;4.57;;;11.60;99.90;;;;;;5064732;28;20076;-93
2021/09/01 04:38:00;;;;;;;6.53;4.25;;;11.70;99.90;;;;;;5055626;28;20060;-93
2021/09/01 04:40:27;;;;;;;5.60;3.90;;;11.70;99.90;;;;;;5055343;28;20049;-92
2021/09/01 04:42:54;;;;;;;7.35;4.25;;;11.70;99.90;;;;;;5055431;28;20497;-92
2021/09/01 04:45:21;;;;;;;7.95;4.90;;;11.70;99.90;;;;;;5055015;28;20048;-92
2021/09/01 04:47:48;;;;;;;7.40;4.60;;;11.70;99.90;;;;;;5055177;28;20041;-91
2021/09/01 04:50:17;;;;;;;7.22;4.50;;;11.80;99.90;;;;;;5054418;28;20049;-94
2021/09/01 04:52:44;;;;;;;7.30;4.83;;;11.90;99.90;;;;;;5054851;28;20067;-92
2021/09/01 04:55:12;;;;;;;8.95;5.10;;;11.90;99.90;;;;;;5054898;28;20055;-91
2021/09/01 04:57:39;;;;;;;8.25;4.63;;;11.90;99.90;;;;;;5054630;28;20079;-93
2021/09/01 05:00:09;;;;;;;8.27;4.53;;;11.90;99.90;;;;;;5054542;28;20126;-92
2021/09/01 05:02:36;;;;;;;9.05;5.05;;;11.90;99.90;;;;;;5054491;28;20049;-91
2021/09/01 05:05:04;;;;;;;7.78;4.40;;;11.90;99.90;;;;;;5054419;28;20049;-92
2021/09/01 05:07:32;;;;;;;7.88;4.95;;;11.90;99.90;;;;;;5054634;28;20140;-92
2021/09/01 05:09:59;;;;;;;9.98;4.80;;;11.90;99.90;;;;;;5054895;28;20057;-92
2021/09/01 05:12:27;;;;;;;7.85;4.43;;;11.80;99.90;;;;;;5054561;28;20482;-92
2021/09/01 05:14:55;;;;;;;8.00;4.88;;;11.80;99.90;;;;;;5054301;28;20079;-94
2021/09/01 05:17:22;;;;;;;7.28;5.00;;;11.80;99.90;;;;;;5054594;28;20055;-93
2021/09/01 05:19:50;;;;;;;7.90;5.00;;;11.70;99.90;;;;;;5054455;28;20040;-92
2021/09/01 05:22:20;;;;;;;8.02;4.68;;;11.80;99.90;;;;;;5054770;28;20041;-92
2021/09/01 05:25:01;;;;;;;7.57;4.60;;;11.70;99.90;;;;;;5054589;28;20083;-92
2021/09/01 05:27:28;;;;;;;7.13;4.20;;;11.60;99.90;;;;;;5054224;28;20077;-93
2021/09/01 05:29:56;;;;;;;5.70;3.80;;;11.60;99.90;;;;;;5054296;28;20474;-93
2021/09/01 05:32:25;;;;;;;6.00;4.22;;;11.60;99.90;;;;;;5054191;28;20088;-93
2021/09/01 05:34:55;;;;;;;6.10;4.20;;;11.60;99.90;;;;;;5054318;28;20053;-93
2021/09/01 05:37:23;;;;;;;6.18;4.07;;;11.60;99.90;;;;;;5056425;28;20045;-92
2021/09/01 05:39:55;;;;;;;5.85;4.00;;;11.60;99.90;;;;;;5057729;28;20141;-92
2021/09/01 05:42:25;;;;;;;5.82;3.97;;;11.60;99.90;;;;;;5054508;28;20048;-93
2021/09/01 05:44:54;;;;;;;5.40;3.42;;;11.70;99.90;;;;;;5054949;28;20053;-92
2021/09/01 05:47:22;;;;;;;5.22;3.60;;;11.60;99.90;;;;;;5056928;28;20114;-93
2021/09/01 05:49:51;;;;;;;5.90;3.90;;;11.70;99.90;;;;;;5058790;28;20522;-92
2021/09/01 05:52:19;;;;;;;4.95;3.30;;;11.70;99.90;;;;;;5058773;28;20045;-93
2021/09/01 05:54:50;;;;;;;5.82;3.95;;;11.70;99.90;;;;;;5059105;28;20048;-93
2021/09/01 05:57:22;;;;;;;4.97;3.42;;;11.70;99.90;;;;;;5059735;28;20132;-92
2021/09/01 05:59:55;;;;;;;5.45;3.65;;;11.70;99.90;;;;;;5058975;28;20045;-92
2021/09/01 06:02:30;;;;;;;5.50;3.80;;;11.70;99.90;;;;;;5058426;28;20045;-92
2021/09/01 06:05:02;;;;;;;4.93;3.28;;;11.70;99.90;;;;;;5057944;28;20045;-92
2021/09/01 06:07:30;;;;;;;5.10;3.30;;;11.60;99.90;;;;;;5058837;28;20076;-92
2021/09/01 06:10:01;;;;;;;5.85;3.55;;;11.60;99.90;;;;;;5058822;28;20045;-93
2021/09/01 06:12:30;;;;;;;5.68;3.72;;;11.70;99.90;;;;;;5063792;28;20063;-92
2021/09/01 06:14:58;;;;;;;5.40;3.40;;;11.70;99.90;;;;;;5071647;28;20049;-92
2021/09/01 06:17:25;;;;;;;5.80;3.80;;;11.70;99.90;;;;;;5073451;28;20088;-92
2021/09/01 06:19:52;;;;;;;5.35;3.33;;;11.80;99.90;;;;;;5073189;28;20538;-92
2021/09/01 06:22:19;;;;;;;5.53;3.50;;;11.80;99.90;;;;;;5071661;28;20136;-92
2021/09/01 06:24:46;;;;;;;6.32;4.28;;;11.80;99.90;;;;;;5065836;28;20124;-92
2021/09/01 06:27:13;;;;;;;6.57;4.18;;;11.80;99.90;;;;;;5058573;28;20051;-92
2021/09/01 06:29:41;;;;;;;6.38;4.15;;;11.80;99.90;;;;;;5058068;28;20072;-93
2021/09/01 06:32:08;;;;;;;6.10;3.97;;;11.90;99.90;;;;;;5062377;28;20056;-92
2021/09/01 06:34:35;;;;;;;5.75;3.95;;;11.90;99.90;;;;;;5061854;28;20049;-89
2021/09/01 06:37:02;;;;;;;7.82;4.28;;;12.00;99.90;;;;;;5061006;28;20501;-93
2021/09/01 06:39:29;;;;;;;6.15;3.83;;;12.00;99.90;;;;;;5071283;28;20116;-92
2021/09/01 06:41:56;;;;;;;5.68;3.88;;;12.10;99.90;;;;;;5071881;28;20446;-92
2021/09/01 06:44:23;;;;;;;5.95;3.83;;;12.20;99.90;;;;;;5072494;28;20084;-93
2021/09/01 06:46:52;;;;;;;6.60;4.30;;;12.30;99.90;;;;;;5071720;28;20104;-92
2021/09/01 06:49:19;;;;;;;8.80;4.72;;;12.40;99.90;;;;;;5070694;28;20108;-93
2021/09/01 06:51:46;;;;;;;6.78;4.15;;;12.50;99.90;;;;;;5071155;28;20071;-91
2021/09/01 06:54:13;;;;;;;6.20;3.78;;;12.60;99.90;;;;;;5071515;28;20108;-91
2021/09/01 06:56:40;;;;;;;6.53;4.10;;;12.60;99.90;;;;;;5057682;28;20136;-91
2021/09/01 06:59:07;;;;;;;8.48;4.47;;;12.80;99.90;;;;;;5058167;28;20055;-92
2021/09/01 07:01:34;;;;;;;7.53;4.82;;;12.80;99.90;;;;;;5056616;28;20055;-92
2021/09/01 07:04:02;;;;;;;7.90;5.20;;;12.90;99.90;;;;;;5057635;28;20140;-93
2021/09/01 07:06:29;;;;;;;8.10;4.80;;;13.00;99.90;;;;;;5057056;28;20391;-92
2021/09/01 07:08:56;;;;;;;7.75;4.78;;;13.10;99.90;;;;;;5056940;28;20045;-93
2021/09/01 07:11:23;;;;;;;7.22;4.15;;;13.10;99.90;;;;;;5069453;28;20116;-91
2021/09/01 07:13:50;;;;;;;7.63;4.63;;;13.10;99.90;;;;;;5057669;28;20055;-91
2021/09/01 07:16:17;;;;;;;9.23;5.35;;;13.20;99.90;;;;;;5056347;28;20059;-92
2021/09/01 07:18:44;;;;;;;8.55;5.53;;;13.30;99.90;;;;;;5052864;28;20046;-93
2021/09/01 07:21:13;;;;;;;8.93;5.68;;;13.30;99.90;;;;;;5037501;28;20049;-92
2021/09/01 07:23:40;;;;;;;8.40;5.53;;;13.40;99.90;;;;;;5036807;28;20057;-92
2021/09/01 07:26:09;;;;;;;8.75;5.40;;;13.30;99.90;;;;;;5036355;28;20487;-91
2021/09/01 07:28:37;;;;;;;9.93;5.70;;;13.40;99.90;;;;;;5036348;28;20148;-93
2021/09/01 07:31:05;;;;;;;11.82;6.32;;;13.40;99.90;;;;;;5036267;28;20175;-91
2021/09/01 07:33:32;;;;;;;11.52;6.40;;;13.50;99.90;;;;;;5037536;28;20045;-92
2021/09/01 07:35:59;;;;;;;11.45;6.32;;;13.60;99.90;;;;;;5044818;28;20037;-91
2021/09/01 07:38:28;;;;;;;12.02;6.80;;;13.60;99.90;;;;;;5044232;28;20135;-92
2021/09/01 07:40:55;;;;;;;12.02;6.80;;;13.60;99.90;;;;;;5037160;28;20045;-92
2021/09/01 07:43:26;;;;;;;10.00;6.32;;;13.70;99.90;;;;;;5036716;28;20042;-93
2021/09/01 07:45:54;;;;;;;11.68;6.80;;;13.70;99.90;;;;;;5036759;28;20068;-92
2021/09/01 07:48:21;;;;;;;11.32;7.13;;;13.80;99.90;;;;;;5038038;28;20590;-92
2021/09/01 07:50:48;;;;;;;9.88;6.03;;;13.80;99.90;;;;;;5042514;28;20471;-92
2021/09/01 07:53:15;;;;;;;10.13;5.90;;;13.90;99.90;;;;;;5057217;28;20060;-94
2021/09/01 07:55:44;;;;;;;10.77;6.30;;;14.00;99.90;;;;;;5058449;28;20147;-91
2021/09/01 07:58:11;;;;;;;10.05;5.88;;;14.00;99.90;;;;;;5063862;28;20041;-91
2021/09/01 08:00:38;;;;;;;9.93;5.80;;;14.10;99.90;;;;;;5063426;28;20049;-91
2021/09/01 08:03:07;;;;;;;11.23;6.43;;;14.20;99.90;;;;;;5045563;28;20124;-91
2021/09/01 08:05:34;;;;;;;9.25;6.00;;;14.20;99.90;;;;;;5043040;28;20049;-92
2021/09/01 08:08:01;;;;;;;11.38;6.60;;;14.30;99.90;;;;;;5061563;28;20076;-91
2021/09/01 08:10:28;;;;;;;10.55;6.70;;;14.30;99.90;;;;;;5060386;28;20124;-91
2021/09/01 08:12:56;;;;;;;8.25;5.63;;;14.30;99.90;;;;;;5060085;28;20072;-92
2021/09/01 08:15:23;;;;;;;10.40;6.40;;;14.30;99.90;;;;;;5056239;28;20053;-92
2021/09/01 08:17:50;;;;;;;10.93;6.93;;;14.30;99.90;;;;;;5056479;28;20055;-91
2021/09/01 08:20:18;;;;;;;10.50;6.45;;;14.40;99.90;;;;;;5059336;28;20110;-90
2021/09/01 08:22:45;;;;;;;11.93;7.10;;;14.50;99.90;;;;;;5055508;28;20550;-92
2021/09/01 08:25:13;;;;;;;10.60;6.88;;;14.60;99.90;;;;;;5055208;28;20051;-93
2021/09/01 08:27:40;;;;;;;12.68;7.70;;;14.60;99.90;;;;;;5055520;28;20083;-92
2021/09/01 08:30:11;;;;;;;11.00;6.88;;;14.70;99.90;;;;;;5055251;28;20041;-93
2021/09/01 08:32:38;;;;;;;11.90;7.40;;;14.70;99.90;;;;;;5053332;28;20041;-92
2021/09/01 08:35:06;;;;;;;11.40;7.22;;;14.70;99.90;;;;;;5054925;28;20049;-93
2021/09/01 08:37:33;;;;;;;12.38;7.93;;;14.70;99.90;;;;;;5055043;28;20132;-92
2021/09/01 08:40:01;;;;;;;10.15;6.35;;;14.70;99.90;;;;;;5055282;28;20056;-92
2021/09/01 08:42:28;;;;;;;10.60;6.57;;;14.70;99.90;;;;;;5055401;28;20102;-93
2021/09/01 08:44:57;;;;;;;15.35;9.35;;;14.70;99.90;;;;;;5056143;28;20491;-91
2021/09/01 08:47:25;;;;;;;11.60;7.53;;;14.80;99.90;;;;;;5054680;28;20051;-92
2021/09/01 08:49:53;;;;;;;13.45;9.07;;;14.80;99.90;;;;;;5054516;28;20068;-90
2021/09/01 08:52:20;;;;;;;14.30;8.73;;;14.80;99.90;;;;;;5054703;28;20044;-92
2021/09/01 08:54:47;;;;;;;16.15;10.05;;;14.90;99.90;;;;;;5054573;28;20486;-91
2021/09/01 08:57:14;;;;;;;14.82;9.75;;;14.90;99.90;;;;;;5053339;28;20045;-93
2021/09/01 08:59:41;;;;;;;17.30;11.25;;;14.90;99.90;;;;;;5054130;28;20051;-86
2021/09/01 09:02:08;;;;;;;16.67;10.77;;;14.90;99.90;;;;;;5053221;28;20044;-87
2021/09/01 09:04:38;;;;;;;15.18;9.80;;;14.90;99.90;;;;;;5051393;28;20059;-88
2021/09/01 09:07:07;;;;;;;13.90;8.57;;;14.90;99.90;;;;;;5035255;28;20060;-90
2021/09/01 09:09:36;;;;;;;15.52;9.90;;;14.90;99.90;;;;;;5035700;28;20045;-89
2021/09/01 09:12:07;;;;;;;14.35;9.38;;;15.00;99.90;;;;;;5043762;28;20554;-89
2021/09/01 09:14:36;;;;;;;15.07;10.52;;;15.20;99.90;;;;;;5054145;28;20132;-90
2021/09/01 09:17:10;;;;;;;14.43;8.90;;;15.30;99.90;;;;;;5054446;28;20051;-90
2021/09/01 09:20:04;;;;;;;19.17;11.80;;;15.40;99.90;;;;;;5053830;28;20081;-89
2021/09/01 09:22:33;;;;;;;18.38;11.00;;;15.50;99.90;;;;;;5051677;28;20106;-91
2021/09/01 09:25:12;;;;;;;19.00;12.20;;;15.60;99.90;;;;;;5053879;28;20459;-91
2021/09/01 09:27:43;;;;;;;16.83;10.75;;;15.60;99.90;;;;;;5053448;28;20041;-90
2021/09/01 09:30:37;;;;;;;16.92;11.10;;;15.70;99.90;;;;;;5053636;28;20475;-89
2021/09/01 09:33:09;;;;;;;16.38;10.23;;;15.80;99.90;;;;;;5051526;28;20398;-90
2021/09/01 09:35:54;;;;;;;16.58;10.13;;;15.80;99.90;;;;;;5053750;28;20052;-89
2021/09/01 09:38:43;;;;;;;;;;;15.90;99.90;;;;;;5054128;28;20068;-89
2021/09/01 09:41:23;;;;;;;17.20;10.23;;;15.90;99.90;;;;;;5049429;28;20408;-88
2021/09/01 09:43:52;;;;;;;14.57;9.80;;;15.90;99.90;;;;;;5053376;28;20041;-89
2021/09/01 09:46:20;;;;;;;15.20;10.32;;;15.90;99.90;;;;;;5052763;28;20141;-88
2021/09/01 09:48:50;;;;;;;13.32;9.20;;;15.90;99.90;;;;;;5053722;28;20410;-89
2021/09/01 09:51:21;;;;;;;15.93;11.00;;;15.90;99.90;;;;;;5053141;28;20503;-90
2021/09/01 09:53:50;;;;;;;18.33;12.38;;;16.00;99.90;;;;;;5054515;28;20558;-89
2021/09/01 09:56:19;;;;;;;14.00;9.88;;;16.00;99.90;;;;;;5052856;28;20517;-89
2021/09/01 09:58:49;;;;;;;14.48;9.73;;;16.00;99.90;;;;;;5053241;28;20047;-89
2021/09/01 10:01:17;;;;;;;14.77;9.80;;;16.00;99.90;;;;;;5053138;28;20111;-89
2021/09/01 10:03:45;;;;;;;14.02;9.05;;;16.10;99.90;;;;;;5053092;28;20208;-89
2021/09/01 10:06:16;;;;;;;13.52;9.00;;;16.10;99.90;;;;;;5052929;28;20051;-89
2021/09/01 10:08:46;;;;;;;15.05;9.52;;;16.10;99.90;;;;;;5053139;28;20544;-89
2021/09/01 10:11:16;;;;;;;13.55;8.73;;;16.20;99.90;;;;;;5052768;28;20152;-90
2021/09/01 10:13:47;;;;;;;11.45;8.15;;;16.20;99.90;;;;;;5050748;28;20049;-88
2021/09/01 10:16:25;;;;;;;12.30;7.68;;;16.30;99.90;;;;;;5051284;28;20405;-89
2021/09/01 10:19:00;;;;;;;11.02;7.63;;;16.40;99.90;;;;;;5051873;28;20439;-89
2021/09/01 10:21:30;;;;;;;12.15;8.00;;;16.50;99.90;;;;;;5051520;28;20060;-89
2021/09/01 10:24:16;;;;;;;10.25;6.90;;;16.50;99.90;;;;;;5051975;28;20051;-89
2021/09/01 10:27:04;;;;;;;8.65;5.75;;;16.60;99.90;;;;;;5051775;28;20508;-89
2021/09/01 10:29:47;;;;;;;12.13;7.38;;;16.70;99.90;;;;;;5051368;28;20113;-89
2021/09/01 10:32:27;;;;;;;10.15;6.68;;;16.80;99.90;;;;;;5051573;28;20045;-89
2021/09/01 10:35:32;;;;;;;9.90;6.18;;;16.90;99.90;;;;;;5053979;28;20041;-89
2021/09/01 10:38:06;;;;;;;7.95;5.55;;;17.00;99.90;;;;;;5053511;28;20060;-88
2021/09/01 10:41:05;;;;;;;8.98;5.55;;;17.00;99.90;;;;;;5054077;28;20049;-88
2021/09/01 10:43:33;;;;;;;7.43;4.70;;;17.10;99.90;;;;;;5053898;28;20168;-88
2021/09/01 10:46:00;;;;;;;6.88;4.47;;;17.10;99.90;;;;;;5053605;28;20051;-88
2021/09/01 10:48:27;;;;;;;6.95;4.38;;;17.30;99.90;;;;;;5053659;28;20139;-87
2021/09/01 10:50:55;;;;;;;5.75;3.78;;;17.40;99.90;;;;;;5053836;28;20402;-89
2021/09/01 10:53:26;;;;;;;6.68;4.25;;;17.50;99.90;;;;;;5053756;28;20053;-88
2021/09/01 10:56:02;;;;;;;6.20;3.95;;;17.50;99.90;;;;;;5053553;28;20057;-89
2021/09/01 10:58:38;;;;;;;6.13;3.90;;;17.70;99.90;;;;;;5066700;28;20048;-89
2021/09/01 11:01:16;;;;;;;5.53;3.53;;;17.80;99.90;;;;;;5065695;28;20060;-89
2021/09/01 11:03:49;;;;;;;5.97;3.60;;;17.80;99.90;;;;;;5061816;28;20061;-88
2021/09/01 11:06:22;;;;;;;5.18;3.28;;;17.80;99.90;;;;;;5056077;28;20049;-88
2021/09/01 11:08:58;;;;;;;5.80;3.87;;;18.00;99.90;;;;;;5055816;28;20490;-88
2021/09/01 11:11:50;;;;;;;5.28;3.47;;;18.10;99.90;;;;;;5055528;28;20049;-89
2021/09/01 11:14:35;;;;;;;6.43;3.85;;;18.30;99.90;;;;;;5055309;28;20052;-88
2021/09/01 11:17:06;;;;;;;6.00;3.42;;;18.30;99.90;;;;;;5050868;28;20052;-88
2021/09/01 11:19:33;;;;;;;5.43;3.28;;;18.00;99.90;;;;;;5032359;28;20053;-88
2021/09/01 11:22:06;;;;;;;5.88;3.40;;;18.60;99.40;;;;;;5032505;28;20125;-86
2021/09/01 11:24:48;;;;;;;5.22;2.70;;;18.50;98.60;;;;;;5046878;28;20042;-86
2021/09/01 11:27:19;;;;;;;4.75;2.72;;;18.60;98.30;;;;;;5032374;28;20518;-86
2021/09/01 11:29:46;;;;;;;5.25;3.70;;;18.80;98.20;;;;;;5031679;28;20053;-86
2021/09/01 11:32:19;;;;;;;6.57;4.28;;;18.90;97.70;;;;;;5032266;28;20141;-86
2021/09/01 11:34:47;;;;;;;5.40;3.35;;;19.10;97.50;;;;;;5033608;28;20041;-89
2021/09/01 11:37:16;;;;;;;5.32;3.40;;;19.10;97.40;;;;;;5032217;28;20077;-88
2021/09/01 11:39:45;;;;;;;8.57;5.40;;;19.20;96.60;;;;;;5032363;28;20063;-88
2021/09/01 11:42:13;;;;;;;5.53;3.60;;;19.30;94.70;;;;;;5031914;28;20471;-87
2021/09/01 11:44:42;;;;;;;5.80;3.17;;;19.30;94.60;;;;;;5031610;28;20056;-89
2021/09/01 11:47:15;;;;;;;5.28;3.20;;;19.40;94.10;;;;;;5031937;28;20053;-88
2021/09/01 11:49:42;;;;;;;5.15;2.90;;;19.50;93.50;;;;;;5037447;28;20499;-88
2021/09/01 11:52:09;;;;;;;5.25;3.00;;;19.50;92.70;;;;;;5051971;28;20347;-88
2021/09/01 11:54:40;;;;;;;4.13;2.70;;;19.50;92.60;;;;;;5051064;28;20395;-85
2021/09/01 11:57:08;;;;;;;7.07;2.97;;;19.60;92.80;;;;;;5045113;28;20510;-86
2021/09/01 11:59:36;;;;;;;4.30;2.45;;;19.70;93.10;;;;;;5045333;28;20045;-87
2021/09/01 12:02:08;;;;;;;4.90;2.97;;;19.90;93.00;;;;;;5050743;28;20053;-88
2021/09/01 12:04:42;;;;;;;4.50;2.50;;;20.00;92.40;;;;;;5031534;28;20045;-87
2021/09/01 12:07:10;;;;;;;4.53;2.85;;;20.20;92.40;;;;;;5031456;28;20056;-87
2021/09/01 12:09:37;;;;;;;5.20;2.90;;;20.30;91.90;;;;;;5030799;28;20413;-88
2021/09/01 12:12:07;;;;;;;4.68;2.60;;;20.50;92.10;;;;;;5031353;28;20330;-88
2021/09/01 12:14:34;;;;;;;5.70;2.95;;;20.60;91.60;;;;;;5031731;28;20056;-88
2021/09/01 12:17:20;;;;;;;4.50;2.72;;;20.70;91.40;;;;;;5030990;28;20513;-87
2021/09/01 12:19:49;;;;;;;4.50;2.75;;;20.90;90.60;;;;;;5031278;28;20045;-87
2021/09/01 12:22:32;;;;;;;5.15;2.90;;;21.10;90.50;;;;;;5030372;28;20052;-86
2021/09/01 12:25:07;;;;;;;4.53;2.63;;;21.30;89.90;;;;;;5031233;28;20049;-86
2021/09/01 12:27:35;;;;;;;4.30;2.78;;;21.40;89.80;;;;;;5030624;28;20063;-87
2021/09/01 12:30:05;;;;;;;4.55;2.78;;;21.60;89.70;;;;;;5033163;28;20403;-87
2021/09/01 12:32:33;;;;;;;5.15;3.00;;;21.70;94.60;;;;;;5040420;28;20184;-87
2021/09/01 12:35:04;;;;;;;4.55;2.50;;;22.00;92.30;;;;;;5030261;28;20088;-85
2021/09/01 12:37:35;;;;;;;4.22;2.33;;;22.00;91.00;;;;;;5048525;28;20051;-86
2021/09/01 12:40:06;;;;;;;4.45;2.78;;;22.00;90.90;;;;;;5050450;28;20106;-87
2021/09/01 12:42:38;;;;;;;4.88;2.50;;;21.80;90.50;;;;;;5050395;28;20402;-85
2021/09/01 12:45:08;;;;;;;4.45;2.67;;;21.90;89.30;;;;;;5045395;28;20056;-85
2021/09/01 12:47:52;;;;;;;4.55;2.80;;;22.00;88.20;;;;;;5029831;28;20505;-86
2021/09/01 12:50:20;;;;;;;5.13;2.70;;;22.10;87.30;;;;;;5042680;28;20059;-86
2021/09/01 12:52:47;;;;;;;5.18;3.25;;;22.10;86.50;;;;;;5030761;28;20229;-86
2021/09/01 12:55:13;;;;;;;6.28;3.00;;;22.20;85.80;;;;;;5039070;28;20123;-86
2021/09/01 12:57:41;;;;;;;4.28;2.85;;;22.10;86.10;;;;;;5037269;28;20487;-86
2021/09/01 13:00:10;;;;;;;4.80;2.75;;;22.20;84.70;;;;;;5049716;28;20091;-87
2021/09/01 13:02:38;;;;;;;5.40;2.75;;;22.20;84.00;;;;;;5042845;28;20045;-86